sensor_id;sensor_type;location;lat;lon;timestamp;temperature;humidity
19007;DHT22;9636;47.382;8.480;2022-07-23T01:26:16;21.50;99.90
19007;DHT22;9636;47.382;8.480;2022-07-23T02:01:38;21.70;99.90
19007;DHT22;9636;47.382;8.480;2022-07-23T02:04:54;21.70;99.90
19007;DHT22;9636;47.382;8.480;2022-07-23T02:11:46;21.60;99.90
19007;DHT22;9636;47.382;8.480;2022-07-23T02:20:44;21.50;99.90
19007;DHT22;9636;47.382;8.480;2022-07-23T03:13:26;21.10;99.90
19007;DHT22;9636;47.382;8.480;2022-07-23T03:15:56;21.00;99.90
19007;DHT22;9636;47.382;8.480;2022-07-23T03:18:37;20.90;99.90
19007;DHT22;9636;47.382;8.480;2022-07-23T03:21:46;20.80;99.90
19007;DHT22;9636;47.382;8.480;2022-07-23T03:24:23;20.80;99.90
19007;DHT22;9636;47.382;8.480;2022-07-23T03:34:47;21.00;99.90
19007;DHT22;9636;47.382;8.480;2022-07-23T03:40:50;20.80;99.90
19007;DHT22;9636;47.382;8.480;2022-07-23T03:43:30;20.80;99.90
19007;DHT22;9636;47.382;8.480;2022-07-23T03:46:50;20.60;99.90
19007;DHT22;9636;47.382;8.480;2022-07-23T03:49:43;20.70;99.90
19007;DHT22;9636;47.382;8.480;2022-07-23T03:52:57;20.40;99.90
19007;DHT22;9636;47.382;8.480;2022-07-23T04:00:16;20.60;99.90
19007;DHT22;9636;47.382;8.480;2022-07-23T04:28:43;20.60;99.90
19007;DHT22;9636;47.382;8.480;2022-07-23T04:31:10;20.70;99.90
19007;DHT22;9636;47.382;8.480;2022-07-23T04:33:37;20.80;99.90
19007;DHT22;9636;47.382;8.480;2022-07-23T04:36:04;20.40;99.90
19007;DHT22;9636;47.382;8.480;2022-07-23T04:38:31;20.50;99.90
19007;DHT22;9636;47.382;8.480;2022-07-23T04:40:58;20.60;99.90
19007;DHT22;9636;47.382;8.480;2022-07-23T04:43:25;20.60;99.90
19007;DHT22;9636;47.382;8.480;2022-07-23T04:45:53;20.60;99.90
19007;DHT22;9636;47.382;8.480;2022-07-23T04:48:20;20.60;99.90
19007;DHT22;9636;47.382;8.480;2022-07-23T04:50:47;20.60;99.90
19007;DHT22;9636;47.382;8.480;2022-07-23T04:53:14;20.50;99.90
19007;DHT22;9636;47.382;8.480;2022-07-23T04:55:41;20.60;99.90
19007;DHT22;9636;47.382;8.480;2022-07-23T04:58:08;20.70;99.90
19007;DHT22;9636;47.382;8.480;2022-07-23T05:00:35;20.70;99.90
19007;DHT22;9636;47.382;8.480;2022-07-23T05:03:03;20.70;99.90
19007;DHT22;9636;47.382;8.480;2022-07-23T05:05:30;20.60;99.90
19007;DHT22;9636;47.382;8.480;2022-07-23T05:07:57;20.60;99.90
19007;DHT22;9636;47.382;8.480;2022-07-23T05:10:24;20.60;99.90
19007;DHT22;9636;47.382;8.480;2022-07-23T05:12:50;20.60;99.90
19007;DHT22;9636;47.382;8.480;2022-07-23T05:15:17;20.60;99.90
19007;DHT22;9636;47.382;8.480;2022-07-23T05:17:44;20.70;99.90
19007;DHT22;9636;47.382;8.480;2022-07-23T05:20:13;20.60;99.90
19007;DHT22;9636;47.382;8.480;2022-07-23T05:22:41;20.60;99.90
19007;DHT22;9636;47.382;8.480;2022-07-23T05:25:08;20.50;99.90
19007;DHT22;9636;47.382;8.480;2022-07-23T05:27:35;20.50;99.90
19007;DHT22;9636;47.382;8.480;2022-07-23T05:30:06;20.30;99.90
19007;DHT22;9636;47.382;8.480;2022-07-23T05:32:33;20.10;99.90
19007;DHT22;9636;47.382;8.480;2022-07-23T05:35:02;20.00;99.90
19007;DHT22;9636;47.382;8.480;2022-07-23T05:37:30;20.00;99.90
19007;DHT22;9636;47.382;8.480;2022-07-23T05:40:07;20.00;99.90
19007;DHT22;9636;47.382;8.480;2022-07-23T05:42:47;20.00;99.90
19007;DHT22;9636;47.382;8.480;2022-07-23T05:45:16;20.00;99.90
19007;DHT22;9636;47.382;8.480;2022-07-23T06:32:33;19.80;99.90
19007;DHT22;9636;47.382;8.480;2022-07-23T06:35:03;19.80;99.90
19007;DHT22;9636;47.382;8.480;2022-07-23T06:40:26;20.00;99.90
19007;DHT22;9636;47.382;8.480;2022-07-23T06:43:14;19.90;99.90
19007;DHT22;9636;47.382;8.480;2022-07-23T06:45:56;19.90;99.90
19007;DHT22;9636;47.382;8.480;2022-07-23T06:54:07;19.90;99.90
19007;DHT22;9636;47.382;8.480;2022-07-23T06:56:34;20.00;99.90
19007;DHT22;9636;47.382;8.480;2022-07-23T06:59:01;19.80;99.90
19007;DHT22;9636;47.382;8.480;2022-07-23T07:01:28;19.80;99.90
19007;DHT22;9636;47.382;8.480;2022-07-23T07:03:57;19.90;99.90
19007;DHT22;9636;47.382;8.480;2022-07-23T07:06:24;19.90;99.90
19007;DHT22;9636;47.382;8.480;2022-07-23T07:08:55;19.80;99.90
19007;DHT22;9636;47.382;8.480;2022-07-23T08:19:01;20.80;99.90
19007;DHT22;9636;47.382;8.480;2022-07-23T08:21:49;20.80;99.90
19007;DHT22;9636;47.382;8.480;2022-07-23T08:24:16;21.00;99.90
19007;DHT22;9636;47.382;8.480;2022-07-23T08:26:43;21.00;99.90
19007;DHT22;9636;47.382;8.480;2022-07-23T08:29:10;21.00;99.90
19007;DHT22;9636;47.382;8.480;2022-07-23T08:31:37;21.00;99.90
19007;DHT22;9636;47.382;8.480;2022-07-23T08:34:08;20.80;99.90
19007;DHT22;9636;47.382;8.480;2022-07-23T08:36:43;20.90;99.90
19007;DHT22;9636;47.382;8.480;2022-07-23T08:39:11;20.90;99.90
19007;DHT22;9636;47.382;8.480;2022-07-23T08:41:41;21.00;99.90
19007;DHT22;9636;47.382;8.480;2022-07-23T08:44:10;21.00;99.90
19007;DHT22;9636;47.382;8.480;2022-07-23T08:46:38;21.10;99.90
19007;DHT22;9636;47.382;8.480;2022-07-23T08:49:10;21.10;99.90
19007;DHT22;9636;47.382;8.480;2022-07-23T08:52:10;21.00;99.90
19007;DHT22;9636;47.382;8.480;2022-07-23T08:54:43;21.00;99.90
19007;DHT22;9636;47.382;8.480;2022-07-23T10:03:08;20.80;99.90
19007;DHT22;9636;47.382;8.480;2022-07-23T10:05:47;21.00;99.90
19007;DHT22;9636;47.382;8.480;2022-07-23T10:16:29;20.90;99.90
19007;DHT22;9636;47.382;8.480;2022-07-23T10:19:03;20.80;99.90
19007;DHT22;9636;47.382;8.480;2022-07-23T10:22:42;20.80;99.90
19007;DHT22;9636;47.382;8.480;2022-07-23T10:26:22;20.80;99.90
19007;DHT22;9636;47.382;8.480;2022-07-23T10:28:27;20.90;99.90
19007;DHT22;9636;47.382;8.480;2022-07-23T10:31:02;21.10;99.90
19007;DHT22;9636;47.382;8.480;2022-07-23T10:33:41;21.00;99.90
19007;DHT22;9636;47.382;8.480;2022-07-23T10:36:20;21.10;99.90
19007;DHT22;9636;47.382;8.480;2022-07-23T10:38:53;21.10;99.90
19007;DHT22;9636;47.382;8.480;2022-07-23T10:41:32;21.20;99.90
19007;DHT22;9636;47.382;8.480;2022-07-23T10:44:07;21.20;99.90
19007;DHT22;9636;47.382;8.480;2022-07-23T10:46:34;21.00;99.90
19007;DHT22;9636;47.382;8.480;2022-07-23T10:49:22;21.00;99.90
19007;DHT22;9636;47.382;8.480;2022-07-23T10:55:40;21.20;99.90
19007;DHT22;9636;47.382;8.480;2022-07-23T10:58:07;21.20;99.90
19007;DHT22;9636;47.382;8.480;2022-07-23T11:00:35;21.20;99.90
19007;DHT22;9636;47.382;8.480;2022-07-23T11:03:04;21.40;99.90
19007;DHT22;9636;47.382;8.480;2022-07-23T11:05:40;21.50;99.90
19007;DHT22;9636;47.382;8.480;2022-07-23T11:08:18;21.50;99.90
19007;DHT22;9636;47.382;8.480;2022-07-23T11:10:50;21.40;99.90
19007;DHT22;9636;47.382;8.480;2022-07-23T11:13:27;21.60;99.90
19007;DHT22;9636;47.382;8.480;2022-07-23T11:16:08;21.80;99.90
19007;DHT22;9636;47.382;8.480;2022-07-23T11:18:59;22.10;99.90
19007;DHT22;9636;47.382;8.480;2022-07-23T11:21:47;22.20;99.90
19007;DHT22;9636;47.382;8.480;2022-07-23T11:24:19;22.30;99.90
19007;DHT22;9636;47.382;8.480;2022-07-23T11:26:56;22.20;99.90
19007;DHT22;9636;47.382;8.480;2022-07-23T11:29:43;22.40;99.90
19007;DHT22;9636;47.382;8.480;2022-07-23T11:32:35;22.40;99.90
19007;DHT22;9636;47.382;8.480;2022-07-23T11:35:19;22.50;99.90
19007;DHT22;9636;47.382;8.480;2022-07-23T11:37:47;22.60;99.90
19007;DHT22;9636;47.382;8.480;2022-07-23T11:40:16;22.60;99.90
19007;DHT22;9636;47.382;8.480;2022-07-23T11:42:56;22.70;99.90
19007;DHT22;9636;47.382;8.480;2022-07-23T11:45:25;22.80;99.90
19007;DHT22;9636;47.382;8.480;2022-07-23T11:47:53;22.80;99.90
19007;DHT22;9636;47.382;8.480;2022-07-23T11:50:23;22.80;99.90
19007;DHT22;9636;47.382;8.480;2022-07-23T11:52:50;22.90;99.90
19007;DHT22;9636;47.382;8.480;2022-07-23T11:55:17;23.00;99.90
19007;DHT22;9636;47.382;8.480;2022-07-23T11:57:45;23.10;99.90
19007;DHT22;9636;47.382;8.480;2022-07-23T12:00:18;23.20;99.90
19007;DHT22;9636;47.382;8.480;2022-07-23T12:02:47;23.20;99.90
19007;DHT22;9636;47.382;8.480;2022-07-23T12:05:15;23.30;99.90
19007;DHT22;9636;47.382;8.480;2022-07-23T12:07:43;23.30;99.90
19007;DHT22;9636;47.382;8.480;2022-07-23T12:10:13;23.20;99.90
19007;DHT22;9636;47.382;8.480;2022-07-23T12:12:41;23.20;99.90
19007;DHT22;9636;47.382;8.480;2022-07-23T12:15:09;23.30;99.90
19007;DHT22;9636;47.382;8.480;2022-07-23T12:17:40;23.40;99.90
19007;DHT22;9636;47.382;8.480;2022-07-23T12:20:10;23.40;99.90
19007;DHT22;9636;47.382;8.480;2022-07-23T12:22:39;23.50;99.90
19007;DHT22;9636;47.382;8.480;2022-07-23T12:25:09;23.60;99.90
19007;DHT22;9636;47.382;8.480;2022-07-23T12:27:36;23.60;99.90
19007;DHT22;9636;47.382;8.480;2022-07-23T12:30:23;23.60;99.90
19007;DHT22;9636;47.382;8.480;2022-07-23T12:32:54;23.60;99.90
19007;DHT22;9636;47.382;8.480;2022-07-23T12:35:22;23.70;99.90
19007;DHT22;9636;47.382;8.480;2022-07-23T12:37:51;23.80;99.90
19007;DHT22;9636;47.382;8.480;2022-07-23T12:40:27;23.90;99.90
19007;DHT22;9636;47.382;8.480;2022-07-23T12:42:56;23.90;99.90
19007;DHT22;9636;47.382;8.480;2022-07-23T12:45:23;23.90;99.90
19007;DHT22;9636;47.382;8.480;2022-07-23T12:48:00;23.90;99.90
19007;DHT22;9636;47.382;8.480;2022-07-23T12:50:37;23.90;99.90
19007;DHT22;9636;47.382;8.480;2022-07-23T12:53:06;24.00;99.90
19007;DHT22;9636;47.382;8.480;2022-07-23T12:55:34;24.10;99.90
19007;DHT22;9636;47.382;8.480;2022-07-23T12:58:11;24.10;99.90
19007;DHT22;9636;47.382;8.480;2022-07-23T13:00:59;24.10;99.90
19007;DHT22;9636;47.382;8.480;2022-07-23T13:03:33;24.10;99.90
19007;DHT22;9636;47.382;8.480;2022-07-23T13:06:02;24.20;99.90
19007;DHT22;9636;47.382;8.480;2022-07-23T13:08:31;24.20;99.90
19007;DHT22;9636;47.382;8.480;2022-07-23T13:10:59;24.30;99.90
19007;DHT22;9636;47.382;8.480;2022-07-23T13:13:28;24.20;99.90
19007;DHT22;9636;47.382;8.480;2022-07-23T13:15:56;24.30;99.90
19007;DHT22;9636;47.382;8.480;2022-07-23T13:18:23;24.30;99.90
19007;DHT22;9636;47.382;8.480;2022-07-23T13:20:52;24.30;99.90
19007;DHT22;9636;47.382;8.480;2022-07-23T13:23:21;24.30;99.90
19007;DHT22;9636;47.382;8.480;2022-07-23T13:25:48;24.40;99.90
19007;DHT22;9636;47.382;8.480;2022-07-23T13:28:17;24.50;99.90
19007;DHT22;9636;47.382;8.480;2022-07-23T13:30:44;24.50;99.90
19007;DHT22;9636;47.382;8.480;2022-07-23T13:33:11;24.60;99.90
19007;DHT22;9636;47.382;8.480;2022-07-23T13:35:38;24.60;99.90
19007;DHT22;9636;47.382;8.480;2022-07-23T13:38:07;24.70;99.90
19007;DHT22;9636;47.382;8.480;2022-07-23T13:40:35;24.80;99.90
19007;DHT22;9636;47.382;8.480;2022-07-23T13:43:04;24.70;99.90
19007;DHT22;9636;47.382;8.480;2022-07-23T13:45:31;24.80;99.90
19007;DHT22;9636;47.382;8.480;2022-07-23T13:47:58;24.90;99.90
19007;DHT22;9636;47.382;8.480;2022-07-23T13:50:25;25.00;99.90
19007;DHT22;9636;47.382;8.480;2022-07-23T13:52:52;25.10;99.90
19007;DHT22;9636;47.382;8.480;2022-07-23T13:55:21;25.20;99.90
19007;DHT22;9636;47.382;8.480;2022-07-23T13:57:48;25.30;99.90
19007;DHT22;9636;47.382;8.480;2022-07-23T14:00:15;25.20;99.90
19007;DHT22;9636;47.382;8.480;2022-07-23T14:02:42;25.20;99.90
19007;DHT22;9636;47.382;8.480;2022-07-23T14:05:10;25.20;99.90
19007;DHT22;9636;47.382;8.480;2022-07-23T14:07:38;25.20;99.90
19007;DHT22;9636;47.382;8.480;2022-07-23T14:10:06;25.20;99.90
19007;DHT22;9636;47.382;8.480;2022-07-23T14:12:35;25.20;99.90
19007;DHT22;9636;47.382;8.480;2022-07-23T14:15:02;25.20;99.90
19007;DHT22;9636;47.382;8.480;2022-07-23T14:17:30;25.20;99.90
19007;DHT22;9636;47.382;8.480;2022-07-23T14:19:57;25.30;99.90
19007;DHT22;9636;47.382;8.480;2022-07-23T14:22:24;25.40;99.90
19007;DHT22;9636;47.382;8.480;2022-07-23T14:24:50;25.30;99.90
19007;DHT22;9636;47.382;8.480;2022-07-23T14:27:17;25.30;99.90
19007;DHT22;9636;47.382;8.480;2022-07-23T14:29:46;25.50;99.90
19007;DHT22;9636;47.382;8.480;2022-07-23T14:32:12;25.40;99.90
19007;DHT22;9636;47.382;8.480;2022-07-23T14:34:39;25.40;99.90
19007;DHT22;9636;47.382;8.480;2022-07-23T14:37:06;25.30;99.90
19007;DHT22;9636;47.382;8.480;2022-07-23T14:39:33;25.20;99.90
19007;DHT22;9636;47.382;8.480;2022-07-23T14:42:00;25.20;99.90
19007;DHT22;9636;47.382;8.480;2022-07-23T14:44:27;25.40;99.90
19007;DHT22;9636;47.382;8.480;2022-07-23T14:46:55;25.50;99.90
19007;DHT22;9636;47.382;8.480;2022-07-23T14:49:22;25.60;99.90
19007;DHT22;9636;47.382;8.480;2022-07-23T14:51:49;25.60;99.90
19007;DHT22;9636;47.382;8.480;2022-07-23T14:54:15;25.60;99.90
19007;DHT22;9636;47.382;8.480;2022-07-23T14:56:43;25.40;99.90
19007;DHT22;9636;47.382;8.480;2022-07-23T14:59:10;25.40;99.90
19007;DHT22;9636;47.382;8.480;2022-07-23T15:01:37;25.40;99.90
19007;DHT22;9636;47.382;8.480;2022-07-23T15:04:05;25.20;99.90
19007;DHT22;9636;47.382;8.480;2022-07-23T15:06:33;25.20;99.90
19007;DHT22;9636;47.382;8.480;2022-07-23T15:09:00;25.40;99.90
19007;DHT22;9636;47.382;8.480;2022-07-23T15:11:27;25.50;99.90
19007;DHT22;9636;47.382;8.480;2022-07-23T15:13:56;25.40;99.90
19007;DHT22;9636;47.382;8.480;2022-07-23T15:16:23;25.40;99.90
19007;DHT22;9636;47.382;8.480;2022-07-23T15:18:50;25.40;99.90
19007;DHT22;9636;47.382;8.480;2022-07-23T15:21:18;25.50;99.90
19007;DHT22;9636;47.382;8.480;2022-07-23T15:23:45;25.50;99.90
19007;DHT22;9636;47.382;8.480;2022-07-23T15:26:13;25.50;99.90
19007;DHT22;9636;47.382;8.480;2022-07-23T15:28:41;25.50;99.90
19007;DHT22;9636;47.382;8.480;2022-07-23T15:31:08;25.60;99.90
19007;DHT22;9636;47.382;8.480;2022-07-23T15:33:35;25.70;99.90
19007;DHT22;9636;47.382;8.480;2022-07-23T15:36:03;25.60;99.90
19007;DHT22;9636;47.382;8.480;2022-07-23T15:38:32;25.60;99.90
19007;DHT22;9636;47.382;8.480;2022-07-23T15:40:59;25.60;99.90
19007;DHT22;9636;47.382;8.480;2022-07-23T15:43:26;25.50;99.90
19007;DHT22;9636;47.382;8.480;2022-07-23T15:45:53;25.40;99.90
19007;DHT22;9636;47.382;8.480;2022-07-23T15:48:20;25.40;99.90
19007;DHT22;9636;47.382;8.480;2022-07-23T15:50:48;25.40;99.90
19007;DHT22;9636;47.382;8.480;2022-07-23T15:53:15;25.40;99.90
19007;DHT22;9636;47.382;8.480;2022-07-23T15:55:43;25.50;99.90
19007;DHT22;9636;47.382;8.480;2022-07-23T15:58:11;25.60;99.90
19007;DHT22;9636;47.382;8.480;2022-07-23T16:00:38;25.70;99.90
19007;DHT22;9636;47.382;8.480;2022-07-23T16:03:05;25.70;99.90
19007;DHT22;9636;47.382;8.480;2022-07-23T16:05:32;25.70;99.90
19007;DHT22;9636;47.382;8.480;2022-07-23T16:07:59;25.60;99.90
19007;DHT22;9636;47.382;8.480;2022-07-23T16:10:27;25.60;99.90
19007;DHT22;9636;47.382;8.480;2022-07-23T16:12:55;25.50;99.90
19007;DHT22;9636;47.382;8.480;2022-07-23T16:15:22;25.40;99.90
19007;DHT22;9636;47.382;8.480;2022-07-23T16:17:50;25.40;99.90
19007;DHT22;9636;47.382;8.480;2022-07-23T16:20:17;25.30;99.90
19007;DHT22;9636;47.382;8.480;2022-07-23T16:22:44;25.30;99.90
19007;DHT22;9636;47.382;8.480;2022-07-23T16:25:11;25.30;99.90
19007;DHT22;9636;47.382;8.480;2022-07-23T16:27:39;25.20;99.90
19007;DHT22;9636;47.382;8.480;2022-07-23T16:30:19;25.20;99.90
19007;DHT22;9636;47.382;8.480;2022-07-23T16:32:59;25.20;99.90
19007;DHT22;9636;47.382;8.480;2022-07-23T16:35:26;25.30;99.90
19007;DHT22;9636;47.382;8.480;2022-07-23T16:37:53;25.30;99.90
19007;DHT22;9636;47.382;8.480;2022-07-23T16:40:20;25.30;99.90
19007;DHT22;9636;47.382;8.480;2022-07-23T16:42:47;25.30;99.90
19007;DHT22;9636;47.382;8.480;2022-07-23T16:45:15;25.30;99.90
19007;DHT22;9636;47.382;8.480;2022-07-23T16:47:42;25.40;99.90
19007;DHT22;9636;47.382;8.480;2022-07-23T16:50:11;25.50;99.90
19007;DHT22;9636;47.382;8.480;2022-07-23T16:52:38;25.40;99.90
19007;DHT22;9636;47.382;8.480;2022-07-23T16:57:39;25.30;99.90
19007;DHT22;9636;47.382;8.480;2022-07-23T17:00:08;25.20;99.90
19007;DHT22;9636;47.382;8.480;2022-07-23T17:02:38;25.20;99.90
19007;DHT22;9636;47.382;8.480;2022-07-23T17:05:06;25.20;99.90
19007;DHT22;9636;47.382;8.480;2022-07-23T17:07:34;25.30;99.90
19007;DHT22;9636;47.382;8.480;2022-07-23T17:10:16;25.30;99.90
19007;DHT22;9636;47.382;8.480;2022-07-23T17:12:45;25.30;99.90
19007;DHT22;9636;47.382;8.480;2022-07-23T17:15:13;25.30;99.90
19007;DHT22;9636;47.382;8.480;2022-07-23T17:17:41;25.20;99.90
19007;DHT22;9636;47.382;8.480;2022-07-23T17:20:11;25.20;99.90
19007;DHT22;9636;47.382;8.480;2022-07-23T17:22:42;25.20;99.90
19007;DHT22;9636;47.382;8.480;2022-07-23T17:25:10;25.20;99.90
19007;DHT22;9636;47.382;8.480;2022-07-23T17:27:46;25.20;99.90
19007;DHT22;9636;47.382;8.480;2022-07-23T17:30:46;25.10;99.90
19007;DHT22;9636;47.382;8.480;2022-07-23T17:33:23;25.10;99.90
19007;DHT22;9636;47.382;8.480;2022-07-23T17:36:12;25.00;99.90
19007;DHT22;9636;47.382;8.480;2022-07-23T17:38:53;25.00;99.90
19007;DHT22;9636;47.382;8.480;2022-07-23T17:41:21;24.80;99.90
19007;DHT22;9636;47.382;8.480;2022-07-23T17:43:50;24.80;99.90
19007;DHT22;9636;47.382;8.480;2022-07-23T17:46:19;24.80;99.90
19007;DHT22;9636;47.382;8.480;2022-07-23T17:48:47;24.70;99.90
19007;DHT22;9636;47.382;8.480;2022-07-23T17:51:18;24.70;99.90
19007;DHT22;9636;47.382;8.480;2022-07-23T17:53:50;24.70;99.90
19007;DHT22;9636;47.382;8.480;2022-07-23T17:56:17;24.60;99.90
19007;DHT22;9636;47.382;8.480;2022-07-23T17:58:44;24.60;99.90
19007;DHT22;9636;47.382;8.480;2022-07-23T18:01:11;24.60;99.90
19007;DHT22;9636;47.382;8.480;2022-07-23T18:03:38;24.50;99.90
19007;DHT22;9636;47.382;8.480;2022-07-23T18:06:22;24.40;99.90
19007;DHT22;9636;47.382;8.480;2022-07-23T18:08:52;24.40;99.90
19007;DHT22;9636;47.382;8.480;2022-07-23T18:11:19;24.30;99.90
19007;DHT22;9636;47.382;8.480;2022-07-23T18:13:46;24.20;99.90
19007;DHT22;9636;47.382;8.480;2022-07-23T18:16:13;24.10;99.90
19007;DHT22;9636;47.382;8.480;2022-07-23T18:18:40;24.00;99.90
19007;DHT22;9636;47.382;8.480;2022-07-23T18:21:07;23.90;99.90
19007;DHT22;9636;47.382;8.480;2022-07-23T18:23:35;23.90;99.90
19007;DHT22;9636;47.382;8.480;2022-07-23T18:26:04;23.80;99.90
19007;DHT22;9636;47.382;8.480;2022-07-23T18:28:31;23.80;99.90
19007;DHT22;9636;47.382;8.480;2022-07-23T18:30:58;23.60;99.90
19007;DHT22;9636;47.382;8.480;2022-07-23T18:33:25;23.60;99.90
19007;DHT22;9636;47.382;8.480;2022-07-23T18:35:52;23.50;99.90
19007;DHT22;9636;47.382;8.480;2022-07-23T18:38:19;23.50;99.90
19007;DHT22;9636;47.382;8.480;2022-07-23T18:40:47;23.50;99.90
19007;DHT22;9636;47.382;8.480;2022-07-23T18:43:15;23.50;99.90
19007;DHT22;9636;47.382;8.480;2022-07-23T18:45:43;23.50;99.90
19007;DHT22;9636;47.382;8.480;2022-07-23T18:48:10;23.40;99.90
19007;DHT22;9636;47.382;8.480;2022-07-23T18:50:39;23.40;99.90
19007;DHT22;9636;47.382;8.480;2022-07-23T18:53:06;23.40;99.90
19007;DHT22;9636;47.382;8.480;2022-07-23T18:55:33;23.30;99.90
19007;DHT22;9636;47.382;8.480;2022-07-23T18:58:02;23.20;99.90
19007;DHT22;9636;47.382;8.480;2022-07-23T19:00:29;23.20;99.90
19007;DHT22;9636;47.382;8.480;2022-07-23T19:02:56;23.20;99.90
19007;DHT22;9636;47.382;8.480;2022-07-23T19:05:23;23.10;99.90
19007;DHT22;9636;47.382;8.480;2022-07-23T19:07:50;23.10;99.90
19007;DHT22;9636;47.382;8.480;2022-07-23T19:10:17;23.10;99.90
19007;DHT22;9636;47.382;8.480;2022-07-23T19:12:44;23.00;99.90
19007;DHT22;9636;47.382;8.480;2022-07-23T19:15:13;23.00;99.90
19007;DHT22;9636;47.382;8.480;2022-07-23T19:17:52;23.00;99.90
19007;DHT22;9636;47.382;8.480;2022-07-23T19:20:22;22.90;99.90
19007;DHT22;9636;47.382;8.480;2022-07-23T19:22:49;22.90;99.90
19007;DHT22;9636;47.382;8.480;2022-07-23T19:25:16;22.90;99.90
19007;DHT22;9636;47.382;8.480;2022-07-23T19:27:43;22.90;99.90
19007;DHT22;9636;47.382;8.480;2022-07-23T19:30:10;22.90;99.90
19007;DHT22;9636;47.382;8.480;2022-07-23T19:32:39;22.80;99.90
19007;DHT22;9636;47.382;8.480;2022-07-23T19:35:07;22.70;99.90
19007;DHT22;9636;47.382;8.480;2022-07-23T19:37:35;22.80;99.90
19007;DHT22;9636;47.382;8.480;2022-07-23T19:40:03;22.80;99.90
19007;DHT22;9636;47.382;8.480;2022-07-23T19:42:32;22.80;99.90
19007;DHT22;9636;47.382;8.480;2022-07-23T19:45:00;22.90;99.90
19007;DHT22;9636;47.382;8.480;2022-07-23T19:47:26;22.90;99.90
19007;DHT22;9636;47.382;8.480;2022-07-23T19:49:55;23.00;99.90
19007;DHT22;9636;47.382;8.480;2022-07-23T19:52:22;23.00;99.90
19007;DHT22;9636;47.382;8.480;2022-07-23T19:54:49;23.00;99.90
19007;DHT22;9636;47.382;8.480;2022-07-23T19:57:16;23.00;99.90
19007;DHT22;9636;47.382;8.480;2022-07-23T19:59:43;23.00;99.90
19007;DHT22;9636;47.382;8.480;2022-07-23T20:02:10;23.00;99.90
19007;DHT22;9636;47.382;8.480;2022-07-23T20:04:37;23.10;99.90
19007;DHT22;9636;47.382;8.480;2022-07-23T20:07:05;23.20;99.90
19007;DHT22;9636;47.382;8.480;2022-07-23T20:09:36;23.20;99.90
19007;DHT22;9636;47.382;8.480;2022-07-23T20:12:04;23.10;99.90
19007;DHT22;9636;47.382;8.480;2022-07-23T20:14:31;23.10;99.90
19007;DHT22;9636;47.382;8.480;2022-07-23T20:16:58;23.00;99.90
19007;DHT22;9636;47.382;8.480;2022-07-23T20:19:25;22.90;99.90
19007;DHT22;9636;47.382;8.480;2022-07-23T20:21:53;22.70;99.90
19007;DHT22;9636;47.382;8.480;2022-07-23T20:24:21;22.60;99.90
19007;DHT22;9636;47.382;8.480;2022-07-23T20:27:11;22.50;99.90
19007;DHT22;9636;47.382;8.480;2022-07-23T20:29:44;22.40;99.90
19007;DHT22;9636;47.382;8.480;2022-07-23T20:32:14;22.40;99.90
19007;DHT22;9636;47.382;8.480;2022-07-23T20:34:49;22.30;99.90
19007;DHT22;9636;47.382;8.480;2022-07-23T20:37:16;22.20;99.90
19007;DHT22;9636;47.382;8.480;2022-07-23T20:39:45;22.20;99.90
19007;DHT22;9636;47.382;8.480;2022-07-23T20:42:12;22.10;99.90
19007;DHT22;9636;47.382;8.480;2022-07-23T20:44:41;22.10;99.90
19007;DHT22;9636;47.382;8.480;2022-07-23T20:47:09;22.00;99.90
19007;DHT22;9636;47.382;8.480;2022-07-23T20:49:37;22.00;99.90
19007;DHT22;9636;47.382;8.480;2022-07-23T20:52:04;22.00;99.90
19007;DHT22;9636;47.382;8.480;2022-07-23T20:54:31;21.90;99.90
19007;DHT22;9636;47.382;8.480;2022-07-23T20:57:00;21.90;99.90
19007;DHT22;9636;47.382;8.480;2022-07-23T20:59:27;21.80;99.90
19007;DHT22;9636;47.382;8.480;2022-07-23T21:01:53;21.80;99.90
19007;DHT22;9636;47.382;8.480;2022-07-23T21:04:20;21.80;99.90
19007;DHT22;9636;47.382;8.480;2022-07-23T21:06:47;21.80;99.90
19007;DHT22;9636;47.382;8.480;2022-07-23T21:09:14;21.80;99.90
19007;DHT22;9636;47.382;8.480;2022-07-23T21:11:41;21.80;99.90
19007;DHT22;9636;47.382;8.480;2022-07-23T21:14:09;21.80;99.90
19007;DHT22;9636;47.382;8.480;2022-07-23T21:16:36;21.80;99.90
19007;DHT22;9636;47.382;8.480;2022-07-23T21:19:03;21.80;99.90
19007;DHT22;9636;47.382;8.480;2022-07-23T21:21:30;21.80;99.90
19007;DHT22;9636;47.382;8.480;2022-07-23T21:23:57;21.80;99.90
19007;DHT22;9636;47.382;8.480;2022-07-23T21:26:24;21.80;99.90
19007;DHT22;9636;47.382;8.480;2022-07-23T21:28:51;21.70;99.90
19007;DHT22;9636;47.382;8.480;2022-07-23T21:31:19;21.70;99.90
19007;DHT22;9636;47.382;8.480;2022-07-23T21:33:46;21.70;99.90
19007;DHT22;9636;47.382;8.480;2022-07-23T21:36:13;21.70;99.90
19007;DHT22;9636;47.382;8.480;2022-07-23T21:38:41;21.70;99.90
19007;DHT22;9636;47.382;8.480;2022-07-23T21:41:07;21.70;99.90
19007;DHT22;9636;47.382;8.480;2022-07-23T21:43:34;21.70;99.90
19007;DHT22;9636;47.382;8.480;2022-07-23T21:46:02;21.70;99.90
19007;DHT22;9636;47.382;8.480;2022-07-23T21:48:30;21.90;99.90
19007;DHT22;9636;47.382;8.480;2022-07-23T21:50:57;21.90;99.90
19007;DHT22;9636;47.382;8.480;2022-07-23T21:53:24;21.90;99.90
19007;DHT22;9636;47.382;8.480;2022-07-23T21:55:51;21.90;99.90
19007;DHT22;9636;47.382;8.480;2022-07-23T21:58:17;21.80;99.90
19007;DHT22;9636;47.382;8.480;2022-07-23T22:00:44;21.80;99.90
19007;DHT22;9636;47.382;8.480;2022-07-23T22:03:11;21.80;99.90
19007;DHT22;9636;47.382;8.480;2022-07-23T22:05:39;21.70;99.90
19007;DHT22;9636;47.382;8.480;2022-07-23T22:08:06;21.70;99.90
19007;DHT22;9636;47.382;8.480;2022-07-23T22:10:33;21.60;99.90
19007;DHT22;9636;47.382;8.480;2022-07-23T22:13:00;21.60;99.90
19007;DHT22;9636;47.382;8.480;2022-07-23T22:15:27;21.60;99.90
19007;DHT22;9636;47.382;8.480;2022-07-23T22:17:54;21.60;99.90
19007;DHT22;9636;47.382;8.480;2022-07-23T22:20:21;21.60;99.90
19007;DHT22;9636;47.382;8.480;2022-07-23T22:22:50;21.50;99.90
19007;DHT22;9636;47.382;8.480;2022-07-23T22:25:18;21.50;99.90
19007;DHT22;9636;47.382;8.480;2022-07-23T22:27:46;21.40;99.90
19007;DHT22;9636;47.382;8.480;2022-07-23T22:30:15;21.30;99.90
19007;DHT22;9636;47.382;8.480;2022-07-23T22:32:44;21.30;99.90
19007;DHT22;9636;47.382;8.480;2022-07-23T22:35:11;21.30;99.90
19007;DHT22;9636;47.382;8.480;2022-07-23T22:37:38;21.30;99.90
19007;DHT22;9636;47.382;8.480;2022-07-23T22:40:08;21.30;99.90
19007;DHT22;9636;47.382;8.480;2022-07-23T22:42:35;21.20;99.90
19007;DHT22;9636;47.382;8.480;2022-07-23T22:45:02;21.20;99.90
19007;DHT22;9636;47.382;8.480;2022-07-23T22:47:29;21.20;99.90
19007;DHT22;9636;47.382;8.480;2022-07-23T22:49:56;21.10;99.90
19007;DHT22;9636;47.382;8.480;2022-07-23T22:52:23;21.10;99.90
19007;DHT22;9636;47.382;8.480;2022-07-23T22:54:50;21.20;99.90
19007;DHT22;9636;47.382;8.480;2022-07-23T22:57:18;21.20;99.90
19007;DHT22;9636;47.382;8.480;2022-07-23T22:59:45;21.20;99.90
19007;DHT22;9636;47.382;8.480;2022-07-23T23:02:11;21.20;99.90
19007;DHT22;9636;47.382;8.480;2022-07-23T23:04:38;21.20;99.90
19007;DHT22;9636;47.382;8.480;2022-07-23T23:07:05;21.00;99.90